sensor_id;sensor_type;location;lat;lon;timestamp;temperature;humidity
35645;DHT22;21764;52.042;6.830;2023-06-26T00:04:26;22.60;88.60
35645;DHT22;21764;52.042;6.830;2023-06-26T00:09:26;22.60;89.00
35645;DHT22;21764;52.042;6.830;2023-06-26T00:14:27;22.50;89.10
35645;DHT22;21764;52.042;6.830;2023-06-26T00:19:28;22.40;89.50
35645;DHT22;21764;52.042;6.830;2023-06-26T00:24:28;22.40;89.20
35645;DHT22;21764;52.042;6.830;2023-06-26T00:29:29;22.40;89.50
35645;DHT22;21764;52.042;6.830;2023-06-26T00:34:30;22.40;89.40
35645;DHT22;21764;52.042;6.830;2023-06-26T00:39:30;22.30;89.20
35645;DHT22;21764;52.042;6.830;2023-06-26T00:44:31;22.30;89.30
35645;DHT22;21764;52.042;6.830;2023-06-26T00:49:32;22.30;89.20
35645;DHT22;21764;52.042;6.830;2023-06-26T00:54:33;22.20;89.10
35645;DHT22;21764;52.042;6.830;2023-06-26T00:59:34;22.20;89.30
35645;DHT22;21764;52.042;6.830;2023-06-26T01:04:35;22.20;89.10
35645;DHT22;21764;52.042;6.830;2023-06-26T01:09:36;22.10;89.10
35645;DHT22;21764;52.042;6.830;2023-06-26T01:14:37;22.10;88.80
35645;DHT22;21764;52.042;6.830;2023-06-26T01:19:38;22.00;88.80
35645;DHT22;21764;52.042;6.830;2023-06-26T01:24:48;21.90;88.90
35645;DHT22;21764;52.042;6.830;2023-06-26T01:29:54;21.90;88.80
35645;DHT22;21764;52.042;6.830;2023-06-26T01:34:56;21.90;88.10
35645;DHT22;21764;52.042;6.830;2023-06-26T01:39:57;21.90;88.10
35645;DHT22;21764;52.042;6.830;2023-06-26T01:45:03;21.80;87.90
35645;DHT22;21764;52.042;6.830;2023-06-26T01:50:16;21.80;88.30
35645;DHT22;21764;52.042;6.830;2023-06-26T02:00:40;21.60;88.60
35645;DHT22;21764;52.042;6.830;2023-06-26T02:05:40;21.60;88.20
35645;DHT22;21764;52.042;6.830;2023-06-26T02:10:41;21.50;88.60
35645;DHT22;21764;52.042;6.830;2023-06-26T02:15:42;21.50;88.50
35645;DHT22;21764;52.042;6.830;2023-06-26T02:20:42;21.50;88.50
35645;DHT22;21764;52.042;6.830;2023-06-26T02:25:44;21.40;88.70
35645;DHT22;21764;52.042;6.830;2023-06-26T02:30:45;21.30;88.60
35645;DHT22;21764;52.042;6.830;2023-06-26T02:35:45;21.40;89.10
35645;DHT22;21764;52.042;6.830;2023-06-26T02:40:46;21.30;89.40
35645;DHT22;21764;52.042;6.830;2023-06-26T02:45:47;21.30;89.50
35645;DHT22;21764;52.042;6.830;2023-06-26T02:50:47;21.10;89.90
35645;DHT22;21764;52.042;6.830;2023-06-26T02:55:48;21.10;89.80
35645;DHT22;21764;52.042;6.830;2023-06-26T03:00:48;21.10;90.10
35645;DHT22;21764;52.042;6.830;2023-06-26T03:05:49;21.20;89.70
35645;DHT22;21764;52.042;6.830;2023-06-26T03:10:50;21.30;89.40
35645;DHT22;21764;52.042;6.830;2023-06-26T03:15:50;21.30;89.70
35645;DHT22;21764;52.042;6.830;2023-06-26T03:20:51;21.30;89.50
35645;DHT22;21764;52.042;6.830;2023-06-26T03:25:54;21.50;89.10
35645;DHT22;21764;52.042;6.830;2023-06-26T03:30:55;21.40;89.10
35645;DHT22;21764;52.042;6.830;2023-06-26T03:35:55;21.40;89.40
35645;DHT22;21764;52.042;6.830;2023-06-26T03:40:56;21.60;89.30
35645;DHT22;21764;52.042;6.830;2023-06-26T03:45:57;21.90;88.80
35645;DHT22;21764;52.042;6.830;2023-06-26T03:50:58;22.20;88.00
35645;DHT22;21764;52.042;6.830;2023-06-26T03:55:58;22.50;87.10
35645;DHT22;21764;52.042;6.830;2023-06-26T04:00:59;22.70;86.30
35645;DHT22;21764;52.042;6.830;2023-06-26T04:06:00;22.90;86.00
35645;DHT22;21764;52.042;6.830;2023-06-26T04:11:01;23.00;85.50
35645;DHT22;21764;52.042;6.830;2023-06-26T04:16:02;23.30;84.50
35645;DHT22;21764;52.042;6.830;2023-06-26T04:21:12;23.80;83.10
35645;DHT22;21764;52.042;6.830;2023-06-26T04:26:13;24.10;82.40
35645;DHT22;21764;52.042;6.830;2023-06-26T04:31:14;24.40;81.60
35645;DHT22;21764;52.042;6.830;2023-06-26T04:36:15;24.10;81.50
35645;DHT22;21764;52.042;6.830;2023-06-26T04:41:16;23.80;82.90
35645;DHT22;21764;52.042;6.830;2023-06-26T04:46:17;23.60;83.60
35645;DHT22;21764;52.042;6.830;2023-06-26T04:51:18;23.90;83.10
35645;DHT22;21764;52.042;6.830;2023-06-26T04:56:21;24.80;80.50
35645;DHT22;21764;52.042;6.830;2023-06-26T05:01:21;25.70;77.60
35645;DHT22;21764;52.042;6.830;2023-06-26T05:06:22;26.50;75.50
35645;DHT22;21764;52.042;6.830;2023-06-26T05:11:24;27.20;72.50
35645;DHT22;21764;52.042;6.830;2023-06-26T05:16:25;27.80;71.10
35645;DHT22;21764;52.042;6.830;2023-06-26T05:21:26;28.30;70.50
35645;DHT22;21764;52.042;6.830;2023-06-26T05:26:27;27.70;70.40
35645;DHT22;21764;52.042;6.830;2023-06-26T05:31:28;28.40;68.80
35645;DHT22;21764;52.042;6.830;2023-06-26T05:36:31;29.70;65.30
35645;DHT22;21764;52.042;6.830;2023-06-26T05:41:34;29.60;65.60
35645;DHT22;21764;52.042;6.830;2023-06-26T05:46:34;28.30;67.80
35645;DHT22;21764;52.042;6.830;2023-06-26T05:51:36;27.30;72.10
35645;DHT22;21764;52.042;6.830;2023-06-26T05:56:36;26.40;73.10
35645;DHT22;21764;52.042;6.830;2023-06-26T06:01:37;25.50;76.50
35645;DHT22;21764;52.042;6.830;2023-06-26T06:06:38;24.90;78.50
35645;DHT22;21764;52.042;6.830;2023-06-26T06:11:38;24.50;80.50
35645;DHT22;21764;52.042;6.830;2023-06-26T06:16:39;29.60;69.50
35645;DHT22;21764;52.042;6.830;2023-06-26T06:21:40;32.00;63.20
35645;DHT22;21764;52.042;6.830;2023-06-26T06:26:41;35.60;55.40
35645;DHT22;21764;52.042;6.830;2023-06-26T06:31:41;36.90;53.00
35645;DHT22;21764;52.042;6.830;2023-06-26T06:36:42;37.80;50.30
35645;DHT22;21764;52.042;6.830;2023-06-26T06:41:42;38.80;49.00
35645;DHT22;21764;52.042;6.830;2023-06-26T06:46:43;40.60;46.50
35645;DHT22;21764;52.042;6.830;2023-06-26T06:51:44;38.20;47.10
35645;DHT22;21764;52.042;6.830;2023-06-26T06:56:44;39.00;48.00
35645;DHT22;21764;52.042;6.830;2023-06-26T07:01:45;42.00;44.80
35645;DHT22;21764;52.042;6.830;2023-06-26T07:06:46;38.40;45.70
35645;DHT22;21764;52.042;6.830;2023-06-26T07:11:46;40.70;45.40
35645;DHT22;21764;52.042;6.830;2023-06-26T07:16:47;37.60;46.70
35645;DHT22;21764;52.042;6.830;2023-06-26T07:21:48;33.80;53.40
35645;DHT22;21764;52.042;6.830;2023-06-26T07:26:48;40.70;45.40
35645;DHT22;21764;52.042;6.830;2023-06-26T07:31:49;43.90;41.00
35645;DHT22;21764;52.042;6.830;2023-06-26T07:36:50;45.00;39.00
35645;DHT22;21764;52.042;6.830;2023-06-26T07:41:50;46.30;37.70
35645;DHT22;21764;52.042;6.830;2023-06-26T07:46:51;45.30;36.80
35645;DHT22;21764;52.042;6.830;2023-06-26T07:51:52;41.00;41.20
35645;DHT22;21764;52.042;6.830;2023-06-26T07:56:53;36.30;45.60
35645;DHT22;21764;52.042;6.830;2023-06-26T08:01:57;35.00;47.90
35645;DHT22;21764;52.042;6.830;2023-06-26T08:06:59;34.30;51.00
35645;DHT22;21764;52.042;6.830;2023-06-26T08:12:00;34.40;49.70
35645;DHT22;21764;52.042;6.830;2023-06-26T08:17:01;39.40;44.40
35645;DHT22;21764;52.042;6.830;2023-06-26T08:22:02;46.40;37.50
35645;DHT22;21764;52.042;6.830;2023-06-26T08:27:03;47.40;34.40
35645;DHT22;21764;52.042;6.830;2023-06-26T08:32:04;38.90;40.20
35645;DHT22;21764;52.042;6.830;2023-06-26T08:37:05;41.20;41.70
35645;DHT22;21764;52.042;6.830;2023-06-26T08:42:06;47.50;35.00
35645;DHT22;21764;52.042;6.830;2023-06-26T08:47:07;42.60;37.80
35645;DHT22;21764;52.042;6.830;2023-06-26T08:52:35;47.00;33.50
35645;DHT22;21764;52.042;6.830;2023-06-26T08:57:36;39.80;38.10
35645;DHT22;21764;52.042;6.830;2023-06-26T09:02:37;45.40;34.30
35645;DHT22;21764;52.042;6.830;2023-06-26T09:07:38;37.50;40.90
35645;DHT22;21764;52.042;6.830;2023-06-26T09:12:39;33.80;46.60
35645;DHT22;21764;52.042;6.830;2023-06-26T09:17:40;44.70;38.10
35645;DHT22;21764;52.042;6.830;2023-06-26T09:22:43;41.90;36.30
35645;DHT22;21764;52.042;6.830;2023-06-26T09:27:47;46.50;35.20
35645;DHT22;21764;52.042;6.830;2023-06-26T09:32:48;42.20;35.30
35645;DHT22;21764;52.042;6.830;2023-06-26T09:37:51;35.90;43.70
35645;DHT22;21764;52.042;6.830;2023-06-26T09:42:51;44.10;35.80
35645;DHT22;21764;52.042;6.830;2023-06-26T09:47:52;37.40;41.10
35645;DHT22;21764;52.042;6.830;2023-06-26T09:52:53;37.40;40.40
35645;DHT22;21764;52.042;6.830;2023-06-26T09:57:56;36.30;46.20
35645;DHT22;21764;52.042;6.830;2023-06-26T10:03:00;44.30;36.80
35645;DHT22;21764;52.042;6.830;2023-06-26T10:08:02;47.70;33.50
35645;DHT22;21764;52.042;6.830;2023-06-26T10:13:11;43.40;33.60
35645;DHT22;21764;52.042;6.830;2023-06-26T10:18:16;35.70;40.60
35645;DHT22;21764;52.042;6.830;2023-06-26T10:23:19;35.30;42.90
35645;DHT22;21764;52.042;6.830;2023-06-26T10:28:21;35.40;41.50
35645;DHT22;21764;52.042;6.830;2023-06-26T10:33:23;34.10;44.30
35645;DHT22;21764;52.042;6.830;2023-06-26T10:38:53;40.30;39.20
35645;DHT22;21764;52.042;6.830;2023-06-26T10:49:12;37.50;39.40
35645;DHT22;21764;52.042;6.830;2023-06-26T10:54:15;33.20;42.70
35645;DHT22;21764;52.042;6.830;2023-06-26T10:59:21;31.90;46.70
35645;DHT22;21764;52.042;6.830;2023-06-26T11:14:54;30.40;48.10
35645;DHT22;21764;52.042;6.830;2023-06-26T11:19:55;30.00;47.70
35645;DHT22;21764;52.042;6.830;2023-06-26T11:24:59;30.40;48.90
35645;DHT22;21764;52.042;6.830;2023-06-26T11:30:00;30.40;47.00
35645;DHT22;21764;52.042;6.830;2023-06-26T11:35:01;29.80;48.00
35645;DHT22;21764;52.042;6.830;2023-06-26T11:40:18;29.60;48.30
35645;DHT22;21764;52.042;6.830;2023-06-26T11:45:19;29.50;48.50
35645;DHT22;21764;52.042;6.830;2023-06-26T11:50:20;29.60;48.10
35645;DHT22;21764;52.042;6.830;2023-06-26T11:55:21;29.60;48.40
35645;DHT22;21764;52.042;6.830;2023-06-26T12:00:22;29.70;47.30
35645;DHT22;21764;52.042;6.830;2023-06-26T12:05:23;30.20;46.40
35645;DHT22;21764;52.042;6.830;2023-06-26T12:10:24;30.20;44.60
35645;DHT22;21764;52.042;6.830;2023-06-26T12:15:24;30.20;45.50
35645;DHT22;21764;52.042;6.830;2023-06-26T12:20:25;30.30;44.40
35645;DHT22;21764;52.042;6.830;2023-06-26T12:25:27;30.30;43.70
35645;DHT22;21764;52.042;6.830;2023-06-26T12:30:27;30.20;45.30
35645;DHT22;21764;52.042;6.830;2023-06-26T12:35:28;30.30;44.90
35645;DHT22;21764;52.042;6.830;2023-06-26T12:40:29;30.60;44.20
35645;DHT22;21764;52.042;6.830;2023-06-26T12:45:37;30.10;44.80
35645;DHT22;21764;52.042;6.830;2023-06-26T12:50:43;29.90;45.30
35645;DHT22;21764;52.042;6.830;2023-06-26T12:55:45;29.60;44.50
35645;DHT22;21764;52.042;6.830;2023-06-26T13:00:46;28.70;46.00
35645;DHT22;21764;52.042;6.830;2023-06-26T13:05:46;28.30;46.10
35645;DHT22;21764;52.042;6.830;2023-06-26T13:10:47;28.30;45.70
35645;DHT22;21764;52.042;6.830;2023-06-26T13:15:48;28.10;48.40
35645;DHT22;21764;52.042;6.830;2023-06-26T13:20:49;28.00;47.40
35645;DHT22;21764;52.042;6.830;2023-06-26T13:25:49;27.70;45.20
35645;DHT22;21764;52.042;6.830;2023-06-26T13:30:51;27.30;45.60
35645;DHT22;21764;52.042;6.830;2023-06-26T13:35:52;27.60;47.80
35645;DHT22;21764;52.042;6.830;2023-06-26T13:40:53;27.70;47.60
35645;DHT22;21764;52.042;6.830;2023-06-26T13:45:55;27.90;46.60
35645;DHT22;21764;52.042;6.830;2023-06-26T13:50:58;27.50;46.50
35645;DHT22;21764;52.042;6.830;2023-06-26T13:55:58;27.50;47.20
35645;DHT22;21764;52.042;6.830;2023-06-26T14:00:59;27.80;48.00
35645;DHT22;21764;52.042;6.830;2023-06-26T14:06:00;28.00;46.60
35645;DHT22;21764;52.042;6.830;2023-06-26T14:11:01;27.60;46.10
35645;DHT22;21764;52.042;6.830;2023-06-26T14:16:01;27.50;46.60
35645;DHT22;21764;52.042;6.830;2023-06-26T14:21:02;27.70;46.40
35645;DHT22;21764;52.042;6.830;2023-06-26T14:26:03;28.00;46.60
35645;DHT22;21764;52.042;6.830;2023-06-26T14:31:04;28.40;46.40
35645;DHT22;21764;52.042;6.830;2023-06-26T14:36:04;28.10;46.00
35645;DHT22;21764;52.042;6.830;2023-06-26T14:41:05;27.80;45.10
35645;DHT22;21764;52.042;6.830;2023-06-26T14:46:06;27.80;45.00
35645;DHT22;21764;52.042;6.830;2023-06-26T14:51:06;27.80;44.90
35645;DHT22;21764;52.042;6.830;2023-06-26T14:56:07;27.50;47.00
35645;DHT22;21764;52.042;6.830;2023-06-26T15:01:08;27.70;46.10
35645;DHT22;21764;52.042;6.830;2023-06-26T15:06:09;27.80;46.10
35645;DHT22;21764;52.042;6.830;2023-06-26T15:11:10;27.80;46.30
35645;DHT22;21764;52.042;6.830;2023-06-26T15:16:10;27.70;46.80
35645;DHT22;21764;52.042;6.830;2023-06-26T15:21:11;27.30;46.50
35645;DHT22;21764;52.042;6.830;2023-06-26T15:26:12;27.30;46.90
35645;DHT22;21764;52.042;6.830;2023-06-26T15:31:14;27.20;48.80
35645;DHT22;21764;52.042;6.830;2023-06-26T15:36:14;27.40;47.60
35645;DHT22;21764;52.042;6.830;2023-06-26T15:41:15;27.10;46.30
35645;DHT22;21764;52.042;6.830;2023-06-26T15:46:16;27.10;47.50
35645;DHT22;21764;52.042;6.830;2023-06-26T15:51:17;27.30;46.20
35645;DHT22;21764;52.042;6.830;2023-06-26T15:56:17;27.30;48.10
35645;DHT22;21764;52.042;6.830;2023-06-26T16:01:18;27.20;46.70
35645;DHT22;21764;52.042;6.830;2023-06-26T16:06:19;27.20;47.00
35645;DHT22;21764;52.042;6.830;2023-06-26T16:11:20;27.30;48.20
35645;DHT22;21764;52.042;6.830;2023-06-26T16:16:20;27.20;49.00
35645;DHT22;21764;52.042;6.830;2023-06-26T16:21:21;27.00;49.00
35645;DHT22;21764;52.042;6.830;2023-06-26T16:26:22;27.00;49.70
35645;DHT22;21764;52.042;6.830;2023-06-26T16:31:22;27.00;49.60
35645;DHT22;21764;52.042;6.830;2023-06-26T16:36:23;26.30;49.00
35645;DHT22;21764;52.042;6.830;2023-06-26T16:41:24;25.90;49.90
35645;DHT22;21764;52.042;6.830;2023-06-26T16:46:24;25.60;50.40
35645;DHT22;21764;52.042;6.830;2023-06-26T16:51:25;25.40;50.90
35645;DHT22;21764;52.042;6.830;2023-06-26T16:56:26;25.30;50.20
35645;DHT22;21764;52.042;6.830;2023-06-26T17:01:26;25.40;51.00
35645;DHT22;21764;52.042;6.830;2023-06-26T17:06:27;25.40;50.50
35645;DHT22;21764;52.042;6.830;2023-06-26T17:11:29;25.00;49.70
35645;DHT22;21764;52.042;6.830;2023-06-26T17:16:29;24.60;52.10
35645;DHT22;21764;52.042;6.830;2023-06-26T17:21:30;24.30;52.30
35645;DHT22;21764;52.042;6.830;2023-06-26T17:26:30;24.20;52.30
35645;DHT22;21764;52.042;6.830;2023-06-26T17:31:31;24.00;52.70
35645;DHT22;21764;52.042;6.830;2023-06-26T17:36:32;23.80;53.50
35645;DHT22;21764;52.042;6.830;2023-06-26T17:41:33;23.90;52.70
35645;DHT22;21764;52.042;6.830;2023-06-26T17:46:33;24.00;53.60
35645;DHT22;21764;52.042;6.830;2023-06-26T17:51:34;23.90;53.20
35645;DHT22;21764;52.042;6.830;2023-06-26T17:56:34;23.60;53.80
35645;DHT22;21764;52.042;6.830;2023-06-26T18:01:35;23.30;54.40
35645;DHT22;21764;52.042;6.830;2023-06-26T18:06:37;23.00;55.20
35645;DHT22;21764;52.042;6.830;2023-06-26T18:11:38;22.80;56.20
35645;DHT22;21764;52.042;6.830;2023-06-26T18:16:39;22.60;55.90
35645;DHT22;21764;52.042;6.830;2023-06-26T18:21:40;22.50;56.60
35645;DHT22;21764;52.042;6.830;2023-06-26T18:26:40;22.40;56.90
35645;DHT22;21764;52.042;6.830;2023-06-26T18:31:41;22.10;56.60
35645;DHT22;21764;52.042;6.830;2023-06-26T18:36:42;21.90;56.80
35645;DHT22;21764;52.042;6.830;2023-06-26T18:41:43;21.80;56.90
35645;DHT22;21764;52.042;6.830;2023-06-26T18:46:44;21.60;56.90
35645;DHT22;21764;52.042;6.830;2023-06-26T18:51:45;21.40;57.70
35645;DHT22;21764;52.042;6.830;2023-06-26T18:56:45;21.30;57.80
35645;DHT22;21764;52.042;6.830;2023-06-26T19:01:46;21.20;57.80
35645;DHT22;21764;52.042;6.830;2023-06-26T19:06:47;21.00;58.40
35645;DHT22;21764;52.042;6.830;2023-06-26T19:11:47;20.90;59.60
35645;DHT22;21764;52.042;6.830;2023-06-26T19:16:48;20.70;58.80
35645;DHT22;21764;52.042;6.830;2023-06-26T19:21:49;20.60;59.30
35645;DHT22;21764;52.042;6.830;2023-06-26T19:26:50;20.40;59.20
35645;DHT22;21764;52.042;6.830;2023-06-26T19:31:52;20.30;59.10
35645;DHT22;21764;52.042;6.830;2023-06-26T19:36:53;20.10;59.70
35645;DHT22;21764;52.042;6.830;2023-06-26T19:41:54;20.00;61.00
35645;DHT22;21764;52.042;6.830;2023-06-26T19:46:54;19.80;60.80
35645;DHT22;21764;52.042;6.830;2023-06-26T19:51:55;19.70;61.30
35645;DHT22;21764;52.042;6.830;2023-06-26T19:56:56;19.50;62.30
35645;DHT22;21764;52.042;6.830;2023-06-26T20:01:57;19.40;62.20
35645;DHT22;21764;52.042;6.830;2023-06-26T20:06:57;19.20;63.80
35645;DHT22;21764;52.042;6.830;2023-06-26T20:12:05;19.00;63.60
35645;DHT22;21764;52.042;6.830;2023-06-26T20:17:06;18.90;63.60
35645;DHT22;21764;52.042;6.830;2023-06-26T20:22:07;18.80;64.40
35645;DHT22;21764;52.042;6.830;2023-06-26T20:27:07;18.70;65.50
35645;DHT22;21764;52.042;6.830;2023-06-26T20:32:08;18.60;65.60
35645;DHT22;21764;52.042;6.830;2023-06-26T20:37:09;18.50;67.00
35645;DHT22;21764;52.042;6.830;2023-06-26T20:42:10;18.50;67.60
35645;DHT22;21764;52.042;6.830;2023-06-26T20:47:12;18.30;67.80
35645;DHT22;21764;52.042;6.830;2023-06-26T20:52:16;18.20;67.90
35645;DHT22;21764;52.042;6.830;2023-06-26T20:57:17;18.20;69.10
35645;DHT22;21764;52.042;6.830;2023-06-26T21:02:18;18.10;69.50
35645;DHT22;21764;52.042;6.830;2023-06-26T21:07:18;18.10;69.90
35645;DHT22;21764;52.042;6.830;2023-06-26T21:12:19;18.00;70.00
35645;DHT22;21764;52.042;6.830;2023-06-26T21:17:20;17.90;70.30
35645;DHT22;21764;52.042;6.830;2023-06-26T21:22:21;17.90;71.50
35645;DHT22;21764;52.042;6.830;2023-06-26T21:27:21;17.80;70.70
35645;DHT22;21764;52.042;6.830;2023-06-26T21:32:22;17.80;72.30
35645;DHT22;21764;52.042;6.830;2023-06-26T21:37:24;17.70;71.90
35645;DHT22;21764;52.042;6.830;2023-06-26T21:42:25;17.60;72.30
35645;DHT22;21764;52.042;6.830;2023-06-26T21:47:26;17.50;73.00
35645;DHT22;21764;52.042;6.830;2023-06-26T21:52:26;17.50;73.40
35645;DHT22;21764;52.042;6.830;2023-06-26T21:57:27;17.40;73.60
35645;DHT22;21764;52.042;6.830;2023-06-26T22:02:28;17.30;74.20
35645;DHT22;21764;52.042;6.830;2023-06-26T22:07:28;17.30;75.60
35645;DHT22;21764;52.042;6.830;2023-06-26T22:12:29;17.20;74.90
35645;DHT22;21764;52.042;6.830;2023-06-26T22:17:30;17.10;75.70
35645;DHT22;21764;52.042;6.830;2023-06-26T22:22:31;17.10;76.10
35645;DHT22;21764;52.042;6.830;2023-06-26T22:27:32;17.00;77.10
35645;DHT22;21764;52.042;6.830;2023-06-26T22:32:32;16.90;78.00
35645;DHT22;21764;52.042;6.830;2023-06-26T22:37:34;16.80;78.20
35645;DHT22;21764;52.042;6.830;2023-06-26T22:42:36;16.60;79.70
35645;DHT22;21764;52.042;6.830;2023-06-26T22:47:38;16.60;79.70
35645;DHT22;21764;52.042;6.830;2023-06-26T22:52:39;16.50;79.80
35645;DHT22;21764;52.042;6.830;2023-06-26T22:57:40;16.50;79.40
35645;DHT22;21764;52.042;6.830;2023-06-26T23:02:40;16.40;80.90
35645;DHT22;21764;52.042;6.830;2023-06-26T23:07:41;16.40;82.40
35645;DHT22;21764;52.042;6.830;2023-06-26T23:12:42;16.50;82.30
35645;DHT22;21764;52.042;6.830;2023-06-26T23:17:42;16.40;81.30
35645;DHT22;21764;52.042;6.830;2023-06-26T23:22:45;16.30;82.90
35645;DHT22;21764;52.042;6.830;2023-06-26T23:27:45;16.30;82.90
35645;DHT22;21764;52.042;6.830;2023-06-26T23:32:46;16.20;82.10
35645;DHT22;21764;52.042;6.830;2023-06-26T23:37:47;16.10;82.40
35645;DHT22;21764;52.042;6.830;2023-06-26T23:42:54;16.10;83.20
35645;DHT22;21764;52.042;6.830;2023-06-26T23:47:57;16.00;83.50
35645;DHT22;21764;52.042;6.830;2023-06-26T23:52:58;16.00;84.40
35645;DHT22;21764;52.042;6.830;2023-06-26T23:58:00;16.10;85.60
